sensor_id;sensor_type;location;lat;lon;timestamp;P1;durP1;ratioP1;P2;durP2;ratioP2
9384;SDS011;4732;49.340;10.886;2024-03-23T04:04:25;10.10;;;7.28;;
9384;SDS011;4732;49.340;10.886;2024-03-23T04:06:57;9.57;;;7.38;;
9384;SDS011;4732;49.340;10.886;2024-03-23T04:09:24;9.00;;;7.15;;
9384;SDS011;4732;49.340;10.886;2024-03-23T04:11:50;7.47;;;6.45;;
9384;SDS011;4732;49.340;10.886;2024-03-23T04:14:15;11.90;;;7.47;;
9384;SDS011;4732;49.340;10.886;2024-03-23T04:16:41;9.57;;;7.05;;
9384;SDS011;4732;49.340;10.886;2024-03-23T04:19:06;6.68;;;5.97;;
9384;SDS011;4732;49.340;10.886;2024-03-23T04:21:32;7.80;;;6.80;;
9384;SDS011;4732;49.340;10.886;2024-03-23T04:23:57;7.65;;;6.82;;
9384;SDS011;4732;49.340;10.886;2024-03-23T04:26:23;9.55;;;5.80;;
9384;SDS011;4732;49.340;10.886;2024-03-23T04:28:48;7.15;;;5.75;;
9384;SDS011;4732;49.340;10.886;2024-03-23T04:31:14;7.70;;;5.90;;
9384;SDS011;4732;49.340;10.886;2024-03-23T04:33:39;7.05;;;5.47;;
9384;SDS011;4732;49.340;10.886;2024-03-23T04:36:05;7.07;;;5.93;;
9384;SDS011;4732;49.340;10.886;2024-03-23T04:38:32;9.65;;;5.10;;
9384;SDS011;4732;49.340;10.886;2024-03-23T04:40:58;7.10;;;5.18;;
9384;SDS011;4732;49.340;10.886;2024-03-23T04:43:27;6.35;;;4.57;;
9384;SDS011;4732;49.340;10.886;2024-03-23T04:45:53;6.50;;;5.00;;
9384;SDS011;4732;49.340;10.886;2024-03-23T04:48:20;7.80;;;4.95;;
9384;SDS011;4732;49.340;10.886;2024-03-23T04:50:47;6.43;;;5.07;;
9384;SDS011;4732;49.340;10.886;2024-03-23T04:53:14;7.00;;;4.95;;
9384;SDS011;4732;49.340;10.886;2024-03-23T04:55:40;7.13;;;4.50;;
9384;SDS011;4732;49.340;10.886;2024-03-23T04:58:06;5.72;;;4.78;;
9384;SDS011;4732;49.340;10.886;2024-03-23T05:00:32;7.32;;;4.05;;
9384;SDS011;4732;49.340;10.886;2024-03-23T05:02:57;5.40;;;4.07;;
9384;SDS011;4732;49.340;10.886;2024-03-23T05:05:23;5.30;;;4.07;;
9384;SDS011;4732;49.340;10.886;2024-03-23T05:07:48;4.68;;;4.00;;
9384;SDS011;4732;49.340;10.886;2024-03-23T05:10:14;5.60;;;4.00;;
9384;SDS011;4732;49.340;10.886;2024-03-23T05:12:39;5.78;;;3.92;;
9384;SDS011;4732;49.340;10.886;2024-03-23T05:15:05;5.30;;;3.60;;
9384;SDS011;4732;49.340;10.886;2024-03-23T05:17:31;6.65;;;3.83;;
9384;SDS011;4732;49.340;10.886;2024-03-23T05:19:57;6.68;;;4.15;;
9384;SDS011;4732;49.340;10.886;2024-03-23T05:22:23;5.80;;;3.67;;
9384;SDS011;4732;49.340;10.886;2024-03-23T05:24:49;5.28;;;3.55;;
9384;SDS011;4732;49.340;10.886;2024-03-23T05:27:14;6.60;;;3.75;;
9384;SDS011;4732;49.340;10.886;2024-03-23T05:29:40;6.05;;;3.90;;
9384;SDS011;4732;49.340;10.886;2024-03-23T05:32:05;4.38;;;3.60;;
9384;SDS011;4732;49.340;10.886;2024-03-23T05:34:31;7.65;;;4.28;;
9384;SDS011;4732;49.340;10.886;2024-03-23T05:36:57;4.95;;;4.00;;
9384;SDS011;4732;49.340;10.886;2024-03-23T05:39:23;5.28;;;3.65;;
9384;SDS011;4732;49.340;10.886;2024-03-23T05:41:49;4.88;;;3.80;;
9384;SDS011;4732;49.340;10.886;2024-03-23T05:44:14;4.88;;;3.80;;
9384;SDS011;4732;49.340;10.886;2024-03-23T05:46:40;3.75;;;3.40;;
9384;SDS011;4732;49.340;10.886;2024-03-23T05:49:06;4.05;;;3.35;;
9384;SDS011;4732;49.340;10.886;2024-03-23T05:51:31;6.05;;;3.83;;
9384;SDS011;4732;49.340;10.886;2024-03-23T05:53:57;4.47;;;3.40;;
9384;SDS011;4732;49.340;10.886;2024-03-23T05:56:23;4.93;;;3.63;;
9384;SDS011;4732;49.340;10.886;2024-03-23T05:58:48;6.30;;;3.78;;
9384;SDS011;4732;49.340;10.886;2024-03-23T06:01:14;7.15;;;4.45;;
9384;SDS011;4732;49.340;10.886;2024-03-23T06:03:39;6.55;;;3.75;;
9384;SDS011;4732;49.340;10.886;2024-03-23T06:06:05;5.95;;;4.15;;
9384;SDS011;4732;49.340;10.886;2024-03-23T06:08:36;6.80;;;3.90;;
9384;SDS011;4732;49.340;10.886;2024-03-23T06:11:02;6.82;;;4.18;;
9384;SDS011;4732;49.340;10.886;2024-03-23T06:13:29;6.88;;;4.70;;
9384;SDS011;4732;49.340;10.886;2024-03-23T06:15:55;5.82;;;5.00;;
9384;SDS011;4732;49.340;10.886;2024-03-23T06:18:22;10.10;;;6.50;;
9384;SDS011;4732;49.340;10.886;2024-03-23T06:20:49;8.07;;;6.07;;
9384;SDS011;4732;49.340;10.886;2024-03-23T06:23:14;9.77;;;7.82;;
9384;SDS011;4732;49.340;10.886;2024-03-23T06:25:40;10.02;;;7.40;;
9384;SDS011;4732;49.340;10.886;2024-03-23T06:28:06;10.23;;;7.75;;
9384;SDS011;4732;49.340;10.886;2024-03-23T06:30:31;11.27;;;8.00;;
9384;SDS011;4732;49.340;10.886;2024-03-23T06:32:57;12.65;;;8.07;;
9384;SDS011;4732;49.340;10.886;2024-03-23T06:35:22;9.23;;;7.97;;
9384;SDS011;4732;49.340;10.886;2024-03-23T06:37:48;11.82;;;8.50;;
9384;SDS011;4732;49.340;10.886;2024-03-23T06:40:14;11.15;;;8.93;;
9384;SDS011;4732;49.340;10.886;2024-03-23T06:42:42;13.77;;;9.27;;
9384;SDS011;4732;49.340;10.886;2024-03-23T06:45:08;11.95;;;9.43;;
9384;SDS011;4732;49.340;10.886;2024-03-23T06:47:34;13.77;;;8.65;;
9384;SDS011;4732;49.340;10.886;2024-03-23T06:50:00;12.50;;;9.20;;
9384;SDS011;4732;49.340;10.886;2024-03-23T06:52:27;12.70;;;9.15;;
9384;SDS011;4732;49.340;10.886;2024-03-23T06:54:53;12.55;;;8.77;;
9384;SDS011;4732;49.340;10.886;2024-03-23T06:57:21;13.27;;;9.02;;
9384;SDS011;4732;49.340;10.886;2024-03-23T07:00:26;9.18;;;7.80;;
9384;SDS011;4732;49.340;10.886;2024-03-23T14:30:57;3.47;;;1.80;;
9384;SDS011;4732;49.340;10.886;2024-03-23T14:33:23;6.40;;;1.90;;
9384;SDS011;4732;49.340;10.886;2024-03-23T14:35:56;7.40;;;2.38;;
9384;SDS011;4732;49.340;10.886;2024-03-23T14:38:24;6.68;;;1.95;;
9384;SDS011;4732;49.340;10.886;2024-03-23T14:40:50;5.90;;;2.58;;
9384;SDS011;4732;49.340;10.886;2024-03-23T14:43:17;5.50;;;2.13;;
9384;SDS011;4732;49.340;10.886;2024-03-23T14:48:47;6.43;;;2.10;;
9384;SDS011;4732;49.340;10.886;2024-03-23T14:51:13;7.38;;;2.20;;
9384;SDS011;4732;49.340;10.886;2024-03-23T16:34:56;3.27;;;1.20;;
9384;SDS011;4732;49.340;10.886;2024-03-23T16:37:22;2.27;;;1.20;;
9384;SDS011;4732;49.340;10.886;2024-03-23T16:39:48;4.10;;;1.37;;
